Himawari 2 — JG5636 — position and weather

sailwx.info

Track history (hours):
 
Tides and Currents Weather Stations Pressure Air Temp Water Temp Dewpoint Dewpoint Depression Visibility Wind Speed Wind Dir Waves Ship Positions

Himawari 2

Last reported at 2017-Jan-17 13:33 UTC. Time now 2017-Jan-20 16:06 UTC.
Position N 35°07' E 139°45'.

Length 161 m; draft 6.5 m.

Type: Cargo ship. MMSI: 431100957.

Date/timePositionNaut miles runAvg speedWind from/ knotsBaromVisibWave heightAir tempDewpointWater temp
2017-Jan-17 13:33N 35°07' E 139°45'1313.4
2017-Jan-17 12:33N 35°20' E 139°43'1515.1
2017-Jan-17 11:34N 35°34' E 139°49'2 2.4
2017-Jan-17 10:31N 35°36' E 139°48'0 0.0
2017-Jan-17 09:31N 35°36' E 139°48'0 0.0
2017-Jan-17 08:28N 35°36' E 139°48'0 0.0
2017-Jan-17 07:31N 35°36' E 139°48'0 0.0
2017-Jan-17 06:31N 35°36' E 139°48'0 0.0
2017-Jan-17 05:31N 35°36' E 139°48'0 0.0
2017-Jan-17 04:31N 35°36' E 139°48'0 0.0
2017-Jan-17 03:31N 35°36' E 139°48'0 0.0
2017-Jan-17 02:31N 35°36' E 139°48'0 0.0
2017-Jan-17 01:28N 35°36' E 139°48'0 0.0
2017-Jan-17 00:33N 35°36' E 139°48'7 7.3
2017-Jan-16 23:33N 35°30' E 139°52'1413.7
2017-Jan-16 22:33N 35°18' E 139°45'1414.2
2017-Jan-16 21:33N 35°04' E 139°43'24418.7
2017-Jan-16 08:30N 33°59' E 134°58'2221.8
2017-Jan-16 07:29N 34°21' E 134°60'2021.2
2017-Jan-16 06:33N 34°34' E 135°18'8 7.2
2017-Jan-16 05:29N 34°40' E 135°24'0 0.0
2017-Jan-16 04:29N 34°40' E 135°24'0 0.0
2017-Jan-16 03:29N 34°40' E 135°24'0 0.0
2017-Jan-16 02:29N 34°40' E 135°24'0 0.0
2017-Jan-16 01:29N 34°40' E 135°24'0 0.0
2017-Jan-16 00:23N 34°40' E 135°24'0 0.0
2017-Jan-15 23:17N 34°40' E 135°24'0 0.0
2017-Jan-15 22:29N 34°40' E 135°24'0 0.0
2017-Jan-15 21:29N 34°40' E 135°24'0 0.0
2017-Jan-15 20:29N 34°40' E 135°24'0 0.0
2017-Jan-15 19:29N 34°40' E 135°24'0 0.0
2017-Jan-15 18:29N 34°40' E 135°24'0 0.0
2017-Jan-15 17:29N 34°40' E 135°24'0 0.0
2017-Jan-15 16:23N 34°40' E 135°24'0 0.0
2017-Jan-15 15:23N 34°40' E 135°24'0 0.0
2017-Jan-15 14:23N 34°40' E 135°24'0 0.0
2017-Jan-15 13:23N 34°40' E 135°24'0 0.0
2017-Jan-15 12:17N 34°40' E 135°24'0 0.0
2017-Jan-15 11:29N 34°40' E 135°24'0 0.0
2017-Jan-15 10:29N 34°40' E 135°24'0 0.0
2017-Jan-15 09:29N 34°40' E 135°24'0 0.0
2017-Jan-15 08:29N 34°40' E 135°24'0 0.0
2017-Jan-15 07:29N 34°40' E 135°24'0 0.0
2017-Jan-15 06:29N 34°40' E 135°24'0 0.0
2017-Jan-15 05:29N 34°40' E 135°24'0 0.0
2017-Jan-15 04:33N 34°40' E 135°24'1010.3
2017-Jan-15 03:33N 34°32' E 135°15'2020.2
2017-Jan-15 02:33N 34°17' E 134°59'1818.0
2017-Jan-15 01:33N 33°59' E 135°00'24414.4
2017-Jan-14 08:33N 35°10' E 139°44'1313.2
2017-Jan-14 07:33N 35°23' E 139°42'1414.3
2017-Jan-14 06:34N 35°36' E 139°48'0 0.3
2017-Jan-14 05:31N 35°36' E 139°48'0 0.0
2017-Jan-14 04:28N 35°36' E 139°48'0 0.0
2017-Jan-14 03:31N 35°36' E 139°48'43 8.4
2017-Jan-13 22:27N 34°57' E 140°08'  
2017-Jan-10 14:33N 35°01' E 139°43'1615.7
2017-Jan-10 13:33N 35°16' E 139°45'1413.8
2017-Jan-10 12:33N 35°29' E 139°51'7 7.1
2017-Jan-10 11:32N 35°36' E 139°48'0 0.0
2017-Jan-10 10:32N 35°36' E 139°48'0 0.0
2017-Jan-10 09:32N 35°36' E 139°48'0 0.0
2017-Jan-10 08:32N 35°36' E 139°48'0 0.0
2017-Jan-10 07:32N 35°36' E 139°48'0 0.0
2017-Jan-10 06:32N 35°36' E 139°48'0 0.0
2017-Jan-10 05:32N 35°36' E 139°48'0 0.0
2017-Jan-10 04:32N 35°36' E 139°48'0 0.0
2017-Jan-10 03:32N 35°36' E 139°48'0 0.0
2017-Jan-10 02:32N 35°36' E 139°48'0 0.0
2017-Jan-10 01:32N 35°36' E 139°48'0 0.0
2017-Jan-10 00:33N 35°36' E 139°48'8 7.7
2017-Jan-09 23:34N 35°30' E 139°52'1413.5
2017-Jan-09 22:33N 35°17' E 139°45'1413.7
2017-Jan-09 21:34N 35°04' E 139°43'24416.2
2017-Jan-09 06:30N 33°55' E 134°58'1616.6
2017-Jan-09 05:33N 34°11' E 134°58'1717.0
2017-Jan-09 04:33N 34°27' E 135°07'1817.9
2017-Jan-09 03:33N 34°38' E 135°23'2 1.7
2017-Jan-09 02:32N 34°40' E 135°24'0 0.0
2017-Jan-09 01:32N 34°40' E 135°24'0 0.0
2017-Jan-09 00:32N 34°40' E 135°24'0 0.0
2017-Jan-08 23:26N 34°40' E 135°24'0 0.0
2017-Jan-08 22:20N 34°40' E 135°24'0 0.0
2017-Jan-08 21:26N 34°40' E 135°24'0 0.0
2017-Jan-08 20:32N 34°40' E 135°24'0 0.0
2017-Jan-08 19:32N 34°40' E 135°24'0 0.0
2017-Jan-08 18:32N 34°40' E 135°24'0 0.0
2017-Jan-08 17:32N 34°40' E 135°24'0 0.0
2017-Jan-08 16:32N 34°40' E 135°24'0 0.0
2017-Jan-08 15:32N 34°40' E 135°24'0 0.0
2017-Jan-08 14:32N 34°40' E 135°24'0 0.0
2017-Jan-08 13:32N 34°40' E 135°24'0 0.0
2017-Jan-08 12:26N 34°40' E 135°24'0 0.0
2017-Jan-08 11:32N 34°40' E 135°24'0 0.0
2017-Jan-08 10:20N 34°40' E 135°24'0 0.0
2017-Jan-08 09:20N 34°40' E 135°24'0 0.0
2017-Jan-08 08:32N 34°40' E 135°24'0 0.0
2017-Jan-08 07:32N 34°40' E 135°24'0 0.0
2017-Jan-08 06:32N 34°40' E 135°24'0 0.0
2017-Jan-08 05:26N 34°40' E 135°24'0 0.0
2017-Jan-08 04:32N 34°40' E 135°24'0 0.0
2017-Jan-08 03:26N 34°40' E 135°24'0 0.0
2017-Jan-08 02:32N 34°40' E 135°24'0 0.0
2017-Jan-08 01:32N 34°40' E 135°24'0 0.0
2017-Jan-08 00:33N 34°40' E 135°24'1211.9
2017-Jan-07 23:33N 34°31' E 135°15'1919.0
2017-Jan-07 22:33N 34°17' E 134°59'2019.6
2017-Jan-07 21:33N 33°57' E 134°58'  
Track history (hours):
 
Tides and Currents Weather Stations Pressure Air Temp Water Temp Dewpoint Dewpoint Depression Visibility Wind Speed Wind Dir Waves Ship Positions

Himawari 2

Last reported at 2017-Jan-17 13:33 UTC. Time now 2017-Jan-20 16:06 UTC.
Position N 35°07' E 139°45'.

Length 161 m; draft 6.5 m.

Type: Cargo ship. MMSI: 431100957.

Date/timePositionNaut miles runAvg speedWind from/ knotsBaromVisibWave heightAir tempDewpointWater temp
2017-Jan-17 13:33N 35°07' E 139°45'1313.4
2017-Jan-17 12:33N 35°20' E 139°43'1515.1
2017-Jan-17 11:34N 35°34' E 139°49'2 2.4
2017-Jan-17 10:31N 35°36' E 139°48'0 0.0
2017-Jan-17 09:31N 35°36' E 139°48'0 0.0
2017-Jan-17 08:28N 35°36' E 139°48'0 0.0
2017-Jan-17 07:31N 35°36' E 139°48'0 0.0
2017-Jan-17 06:31N 35°36' E 139°48'0 0.0
2017-Jan-17 05:31N 35°36' E 139°48'0 0.0
2017-Jan-17 04:31N 35°36' E 139°48'0 0.0
2017-Jan-17 03:31N 35°36' E 139°48'0 0.0
2017-Jan-17 02:31N 35°36' E 139°48'0 0.0
2017-Jan-17 01:28N 35°36' E 139°48'0 0.0
2017-Jan-17 00:33N 35°36' E 139°48'7 7.3
2017-Jan-16 23:33N 35°30' E 139°52'1413.7
2017-Jan-16 22:33N 35°18' E 139°45'1414.2
2017-Jan-16 21:33N 35°04' E 139°43'24418.7
2017-Jan-16 08:30N 33°59' E 134°58'2221.8
2017-Jan-16 07:29N 34°21' E 134°60'2021.2
2017-Jan-16 06:33N 34°34' E 135°18'8 7.2
2017-Jan-16 05:29N 34°40' E 135°24'0 0.0
2017-Jan-16 04:29N 34°40' E 135°24'0 0.0
2017-Jan-16 03:29N 34°40' E 135°24'0 0.0
2017-Jan-16 02:29N 34°40' E 135°24'0 0.0
2017-Jan-16 01:29N 34°40' E 135°24'0 0.0
2017-Jan-16 00:23N 34°40' E 135°24'0 0.0
2017-Jan-15 23:17N 34°40' E 135°24'0 0.0
2017-Jan-15 22:29N 34°40' E 135°24'0 0.0
2017-Jan-15 21:29N 34°40' E 135°24'0 0.0
2017-Jan-15 20:29N 34°40' E 135°24'0 0.0
2017-Jan-15 19:29N 34°40' E 135°24'0 0.0
2017-Jan-15 18:29N 34°40' E 135°24'0 0.0
2017-Jan-15 17:29N 34°40' E 135°24'0 0.0
2017-Jan-15 16:23N 34°40' E 135°24'0 0.0
2017-Jan-15 15:23N 34°40' E 135°24'0 0.0
2017-Jan-15 14:23N 34°40' E 135°24'0 0.0
2017-Jan-15 13:23N 34°40' E 135°24'0 0.0
2017-Jan-15 12:17N 34°40' E 135°24'0 0.0
2017-Jan-15 11:29N 34°40' E 135°24'0 0.0
2017-Jan-15 10:29N 34°40' E 135°24'0 0.0
2017-Jan-15 09:29N 34°40' E 135°24'0 0.0
2017-Jan-15 08:29N 34°40' E 135°24'0 0.0
2017-Jan-15 07:29N 34°40' E 135°24'0 0.0
2017-Jan-15 06:29N 34°40' E 135°24'0 0.0
2017-Jan-15 05:29N 34°40' E 135°24'0 0.0
2017-Jan-15 04:33N 34°40' E 135°24'1010.3
2017-Jan-15 03:33N 34°32' E 135°15'2020.2
2017-Jan-15 02:33N 34°17' E 134°59'1818.0
2017-Jan-15 01:33N 33°59' E 135°00'24414.4
2017-Jan-14 08:33N 35°10' E 139°44'1313.2
2017-Jan-14 07:33N 35°23' E 139°42'1414.3
2017-Jan-14 06:34N 35°36' E 139°48'0 0.3
2017-Jan-14 05:31N 35°36' E 139°48'0 0.0
2017-Jan-14 04:28N 35°36' E 139°48'0 0.0
2017-Jan-14 03:31N 35°36' E 139°48'43 8.4
2017-Jan-13 22:27N 34°57' E 140°08'  
2017-Jan-10 14:33N 35°01' E 139°43'1615.7
2017-Jan-10 13:33N 35°16' E 139°45'1413.8
2017-Jan-10 12:33N 35°29' E 139°51'7 7.1
2017-Jan-10 11:32N 35°36' E 139°48'0 0.0
2017-Jan-10 10:32N 35°36' E 139°48'0 0.0
2017-Jan-10 09:32N 35°36' E 139°48'0 0.0
2017-Jan-10 08:32N 35°36' E 139°48'0 0.0
2017-Jan-10 07:32N 35°36' E 139°48'0 0.0
2017-Jan-10 06:32N 35°36' E 139°48'0 0.0
2017-Jan-10 05:32N 35°36' E 139°48'0 0.0
2017-Jan-10 04:32N 35°36' E 139°48'0 0.0
2017-Jan-10 03:32N 35°36' E 139°48'0 0.0
2017-Jan-10 02:32N 35°36' E 139°48'0 0.0
2017-Jan-10 01:32N 35°36' E 139°48'0 0.0
2017-Jan-10 00:33N 35°36' E 139°48'8 7.7
2017-Jan-09 23:34N 35°30' E 139°52'1413.5
2017-Jan-09 22:33N 35°17' E 139°45'1413.7
2017-Jan-09 21:34N 35°04' E 139°43'24416.2
2017-Jan-09 06:30N 33°55' E 134°58'1616.6
2017-Jan-09 05:33N 34°11' E 134°58'1717.0
2017-Jan-09 04:33N 34°27' E 135°07'1817.9
2017-Jan-09 03:33N 34°38' E 135°23'2 1.7
2017-Jan-09 02:32N 34°40' E 135°24'0 0.0
2017-Jan-09 01:32N 34°40' E 135°24'0 0.0
2017-Jan-09 00:32N 34°40' E 135°24'0 0.0
2017-Jan-08 23:26N 34°40' E 135°24'0 0.0
2017-Jan-08 22:20N 34°40' E 135°24'0 0.0
2017-Jan-08 21:26N 34°40' E 135°24'0 0.0
2017-Jan-08 20:32N 34°40' E 135°24'0 0.0
2017-Jan-08 19:32N 34°40' E 135°24'0 0.0
2017-Jan-08 18:32N 34°40' E 135°24'0 0.0
2017-Jan-08 17:32N 34°40' E 135°24'0 0.0
2017-Jan-08 16:32N 34°40' E 135°24'0 0.0
2017-Jan-08 15:32N 34°40' E 135°24'0 0.0
2017-Jan-08 14:32N 34°40' E 135°24'0 0.0
2017-Jan-08 13:32N 34°40' E 135°24'0 0.0
2017-Jan-08 12:26N 34°40' E 135°24'0 0.0
2017-Jan-08 11:32N 34°40' E 135°24'0 0.0
2017-Jan-08 10:20N 34°40' E 135°24'0 0.0
2017-Jan-08 09:20N 34°40' E 135°24'0 0.0
2017-Jan-08 08:32N 34°40' E 135°24'0 0.0
2017-Jan-08 07:32N 34°40' E 135°24'0 0.0
2017-Jan-08 06:32N 34°40' E 135°24'0 0.0
2017-Jan-08 05:26N 34°40' E 135°24'0 0.0
2017-Jan-08 04:32N 34°40' E 135°24'0 0.0
2017-Jan-08 03:26N 34°40' E 135°24'0 0.0
2017-Jan-08 02:32N 34°40' E 135°24'0 0.0
2017-Jan-08 01:32N 34°40' E 135°24'0 0.0
2017-Jan-08 00:33N 34°40' E 135°24'1211.9
2017-Jan-07 23:33N 34°31' E 135°15'1919.0
2017-Jan-07 22:33N 34°17' E 134°59'2019.6
2017-Jan-07 21:33N 33°57' E 134°58'  

Dump ship's entire track history